sensor_id;sensor_type;location;lat;lon;timestamp;P1;durP1;ratioP1;P2;durP2;ratioP2
30420;SDS011;17218;54.070;10.012;2023-05-10T00:01:12;6.53;;;3.45;;
30420;SDS011;17218;54.070;10.012;2023-05-10T00:03:39;3.88;;;2.72;;
30420;SDS011;17218;54.070;10.012;2023-05-10T00:06:06;4.32;;;2.95;;
30420;SDS011;17218;54.070;10.012;2023-05-10T00:08:32;3.92;;;2.85;;
30420;SDS011;17218;54.070;10.012;2023-05-10T00:11:00;4.10;;;3.00;;
30420;SDS011;17218;54.070;10.012;2023-05-10T00:13:27;3.25;;;2.72;;
30420;SDS011;17218;54.070;10.012;2023-05-10T00:15:53;3.47;;;3.17;;
30420;SDS011;17218;54.070;10.012;2023-05-10T00:18:20;3.17;;;2.72;;
30420;SDS011;17218;54.070;10.012;2023-05-10T00:20:46;4.70;;;3.00;;
30420;SDS011;17218;54.070;10.012;2023-05-10T00:23:13;3.90;;;3.45;;
30420;SDS011;17218;54.070;10.012;2023-05-10T00:25:40;6.47;;;2.95;;
30420;SDS011;17218;54.070;10.012;2023-05-10T00:28:08;4.80;;;2.97;;
30420;SDS011;17218;54.070;10.012;2023-05-10T00:30:35;5.00;;;2.92;;
30420;SDS011;17218;54.070;10.012;2023-05-10T00:33:01;3.03;;;2.72;;
30420;SDS011;17218;54.070;10.012;2023-05-10T00:35:28;4.25;;;3.05;;
30420;SDS011;17218;54.070;10.012;2023-05-10T00:37:54;3.92;;;2.83;;
30420;SDS011;17218;54.070;10.012;2023-05-10T00:40:21;5.65;;;3.33;;
30420;SDS011;17218;54.070;10.012;2023-05-10T00:42:47;7.05;;;3.10;;
30420;SDS011;17218;54.070;10.012;2023-05-10T00:45:15;7.38;;;3.20;;
30420;SDS011;17218;54.070;10.012;2023-05-10T00:47:42;3.28;;;2.83;;
30420;SDS011;17218;54.070;10.012;2023-05-10T00:50:08;5.63;;;2.75;;
30420;SDS011;17218;54.070;10.012;2023-05-10T00:52:36;5.65;;;3.00;;
30420;SDS011;17218;54.070;10.012;2023-05-10T00:55:02;4.28;;;3.15;;
30420;SDS011;17218;54.070;10.012;2023-05-10T00:57:30;4.57;;;3.05;;
30420;SDS011;17218;54.070;10.012;2023-05-10T00:59:57;5.68;;;3.25;;
30420;SDS011;17218;54.070;10.012;2023-05-10T01:02:25;5.25;;;3.10;;
30420;SDS011;17218;54.070;10.012;2023-05-10T01:04:52;2.97;;;2.67;;
30420;SDS011;17218;54.070;10.012;2023-05-10T01:07:19;7.38;;;3.05;;
30420;SDS011;17218;54.070;10.012;2023-05-10T01:09:45;3.60;;;3.00;;
30420;SDS011;17218;54.070;10.012;2023-05-10T01:12:12;8.77;;;3.70;;
30420;SDS011;17218;54.070;10.012;2023-05-10T01:14:39;6.93;;;3.28;;
30420;SDS011;17218;54.070;10.012;2023-05-10T01:17:06;3.90;;;2.70;;
30420;SDS011;17218;54.070;10.012;2023-05-10T01:19:35;3.55;;;3.00;;
30420;SDS011;17218;54.070;10.012;2023-05-10T01:22:04;5.40;;;3.08;;
30420;SDS011;17218;54.070;10.012;2023-05-10T01:24:49;3.83;;;3.20;;
30420;SDS011;17218;54.070;10.012;2023-05-10T01:33:37;10.35;;;4.28;;
30420;SDS011;17218;54.070;10.012;2023-05-10T01:36:11;5.93;;;3.05;;
30420;SDS011;17218;54.070;10.012;2023-05-10T01:38:52;3.38;;;2.92;;
30420;SDS011;17218;54.070;10.012;2023-05-10T01:41:24;5.85;;;3.10;;
30420;SDS011;17218;54.070;10.012;2023-05-10T01:43:55;4.25;;;3.30;;
30420;SDS011;17218;54.070;10.012;2023-05-10T01:46:39;4.28;;;2.75;;
30420;SDS011;17218;54.070;10.012;2023-05-10T01:49:08;5.28;;;3.38;;
30420;SDS011;17218;54.070;10.012;2023-05-10T01:51:38;3.70;;;3.25;;
30420;SDS011;17218;54.070;10.012;2023-05-10T01:54:11;7.63;;;3.53;;
30420;SDS011;17218;54.070;10.012;2023-05-10T01:56:39;4.38;;;3.08;;
30420;SDS011;17218;54.070;10.012;2023-05-10T01:59:08;6.00;;;3.50;;
30420;SDS011;17218;54.070;10.012;2023-05-10T02:01:39;4.55;;;3.10;;
30420;SDS011;17218;54.070;10.012;2023-05-10T02:04:07;6.53;;;3.10;;
30420;SDS011;17218;54.070;10.012;2023-05-10T02:06:35;3.40;;;3.10;;
30420;SDS011;17218;54.070;10.012;2023-05-10T02:09:04;5.05;;;3.35;;
30420;SDS011;17218;54.070;10.012;2023-05-10T02:11:31;3.63;;;3.10;;
30420;SDS011;17218;54.070;10.012;2023-05-10T02:13:59;4.13;;;3.20;;
30420;SDS011;17218;54.070;10.012;2023-05-10T02:16:27;3.53;;;2.97;;
30420;SDS011;17218;54.070;10.012;2023-05-10T02:18:55;5.68;;;3.15;;
30420;SDS011;17218;54.070;10.012;2023-05-10T02:21:26;5.60;;;3.10;;
30420;SDS011;17218;54.070;10.012;2023-05-10T02:23:54;3.40;;;3.10;;
30420;SDS011;17218;54.070;10.012;2023-05-10T02:26:23;5.03;;;3.08;;
30420;SDS011;17218;54.070;10.012;2023-05-10T02:28:51;3.80;;;3.28;;
30420;SDS011;17218;54.070;10.012;2023-05-10T02:31:19;3.30;;;3.05;;
30420;SDS011;17218;54.070;10.012;2023-05-10T02:33:47;5.00;;;3.08;;
30420;SDS011;17218;54.070;10.012;2023-05-10T02:36:15;4.40;;;2.90;;
30420;SDS011;17218;54.070;10.012;2023-05-10T02:38:43;4.15;;;3.08;;
30420;SDS011;17218;54.070;10.012;2023-05-10T02:41:11;6.18;;;3.85;;
30420;SDS011;17218;54.070;10.012;2023-05-10T02:43:39;5.80;;;3.20;;
30420;SDS011;17218;54.070;10.012;2023-05-10T02:46:06;6.80;;;3.47;;
30420;SDS011;17218;54.070;10.012;2023-05-10T02:48:33;3.30;;;3.00;;
30420;SDS011;17218;54.070;10.012;2023-05-10T02:51:00;5.82;;;3.58;;
30420;SDS011;17218;54.070;10.012;2023-05-10T02:53:31;6.78;;;3.63;;
30420;SDS011;17218;54.070;10.012;2023-05-10T02:56:05;3.42;;;3.13;;
30420;SDS011;17218;54.070;10.012;2023-05-10T02:58:36;6.20;;;3.80;;
30420;SDS011;17218;54.070;10.012;2023-05-10T03:01:02;6.18;;;3.53;;
30420;SDS011;17218;54.070;10.012;2023-05-10T03:03:29;5.30;;;3.30;;
30420;SDS011;17218;54.070;10.012;2023-05-10T03:05:55;4.70;;;3.72;;
30420;SDS011;17218;54.070;10.012;2023-05-10T03:08:23;3.60;;;3.30;;
30420;SDS011;17218;54.070;10.012;2023-05-10T03:10:53;5.63;;;3.35;;
30420;SDS011;17218;54.070;10.012;2023-05-10T03:13:31;5.40;;;3.70;;
30420;SDS011;17218;54.070;10.012;2023-05-10T03:16:05;4.95;;;3.70;;
30420;SDS011;17218;54.070;10.012;2023-05-10T03:18:36;4.63;;;3.50;;
30420;SDS011;17218;54.070;10.012;2023-05-10T03:21:07;7.10;;;3.80;;
30420;SDS011;17218;54.070;10.012;2023-05-10T03:23:40;4.13;;;3.72;;
30420;SDS011;17218;54.070;10.012;2023-05-10T03:26:09;3.97;;;3.30;;
30420;SDS011;17218;54.070;10.012;2023-05-10T03:28:37;7.22;;;3.40;;
30420;SDS011;17218;54.070;10.012;2023-05-10T03:31:05;5.82;;;3.33;;
30420;SDS011;17218;54.070;10.012;2023-05-10T03:33:33;3.72;;;3.35;;
30420;SDS011;17218;54.070;10.012;2023-05-10T03:35:59;5.03;;;4.03;;
30420;SDS011;17218;54.070;10.012;2023-05-10T03:38:26;5.53;;;3.00;;
30420;SDS011;17218;54.070;10.012;2023-05-10T03:40:52;4.38;;;3.97;;
30420;SDS011;17218;54.070;10.012;2023-05-10T03:43:19;5.55;;;3.70;;
30420;SDS011;17218;54.070;10.012;2023-05-10T03:45:46;6.22;;;3.88;;
30420;SDS011;17218;54.070;10.012;2023-05-10T03:48:13;4.10;;;3.60;;
30420;SDS011;17218;54.070;10.012;2023-05-10T03:50:40;4.53;;;3.75;;
30420;SDS011;17218;54.070;10.012;2023-05-10T03:53:06;4.65;;;4.00;;
30420;SDS011;17218;54.070;10.012;2023-05-10T03:55:32;5.13;;;4.22;;
30420;SDS011;17218;54.070;10.012;2023-05-10T03:58:01;8.93;;;4.10;;
30420;SDS011;17218;54.070;10.012;2023-05-10T04:00:27;4.28;;;3.67;;
30420;SDS011;17218;54.070;10.012;2023-05-10T04:02:55;6.15;;;3.90;;
30420;SDS011;17218;54.070;10.012;2023-05-10T04:05:21;5.55;;;4.28;;
30420;SDS011;17218;54.070;10.012;2023-05-10T04:07:48;5.50;;;3.97;;
30420;SDS011;17218;54.070;10.012;2023-05-10T04:10:16;7.13;;;3.80;;
30420;SDS011;17218;54.070;10.012;2023-05-10T04:12:42;4.00;;;3.45;;
30420;SDS011;17218;54.070;10.012;2023-05-10T04:15:09;4.85;;;3.90;;
30420;SDS011;17218;54.070;10.012;2023-05-10T04:17:35;4.82;;;3.78;;
30420;SDS011;17218;54.070;10.012;2023-05-10T04:20:05;7.88;;;3.83;;
30420;SDS011;17218;54.070;10.012;2023-05-10T04:22:33;3.55;;;3.15;;
30420;SDS011;17218;54.070;10.012;2023-05-10T04:24:59;4.05;;;3.60;;
30420;SDS011;17218;54.070;10.012;2023-05-10T04:27:26;4.85;;;3.63;;
30420;SDS011;17218;54.070;10.012;2023-05-10T04:29:52;3.58;;;3.28;;
30420;SDS011;17218;54.070;10.012;2023-05-10T04:32:19;5.57;;;3.35;;
30420;SDS011;17218;54.070;10.012;2023-05-10T04:34:45;4.63;;;3.60;;
30420;SDS011;17218;54.070;10.012;2023-05-10T04:37:13;7.20;;;3.75;;
30420;SDS011;17218;54.070;10.012;2023-05-10T04:39:39;8.40;;;4.22;;
30420;SDS011;17218;54.070;10.012;2023-05-10T04:42:06;5.00;;;3.58;;
30420;SDS011;17218;54.070;10.012;2023-05-10T04:44:33;5.75;;;3.90;;
30420;SDS011;17218;54.070;10.012;2023-05-10T04:46:59;5.20;;;4.28;;
30420;SDS011;17218;54.070;10.012;2023-05-10T04:49:27;6.35;;;3.85;;
30420;SDS011;17218;54.070;10.012;2023-05-10T04:51:54;6.95;;;4.28;;
30420;SDS011;17218;54.070;10.012;2023-05-10T04:54:22;4.55;;;3.95;;
30420;SDS011;17218;54.070;10.012;2023-05-10T04:56:48;6.22;;;3.75;;
30420;SDS011;17218;54.070;10.012;2023-05-10T04:59:15;5.30;;;3.80;;
30420;SDS011;17218;54.070;10.012;2023-05-10T05:01:42;4.38;;;3.88;;
30420;SDS011;17218;54.070;10.012;2023-05-10T05:04:08;6.47;;;4.05;;
30420;SDS011;17218;54.070;10.012;2023-05-10T05:06:35;4.00;;;3.70;;
30420;SDS011;17218;54.070;10.012;2023-05-10T05:09:01;4.88;;;3.65;;
30420;SDS011;17218;54.070;10.012;2023-05-10T05:11:29;5.78;;;3.85;;
30420;SDS011;17218;54.070;10.012;2023-05-10T05:13:56;4.60;;;4.10;;
30420;SDS011;17218;54.070;10.012;2023-05-10T05:16:23;4.68;;;3.97;;
30420;SDS011;17218;54.070;10.012;2023-05-10T05:18:50;4.93;;;3.83;;
30420;SDS011;17218;54.070;10.012;2023-05-10T05:21:17;6.32;;;3.90;;
30420;SDS011;17218;54.070;10.012;2023-05-10T05:23:44;5.60;;;4.10;;
30420;SDS011;17218;54.070;10.012;2023-05-10T05:26:11;5.10;;;4.03;;
30420;SDS011;17218;54.070;10.012;2023-05-10T05:28:39;3.75;;;3.45;;
30420;SDS011;17218;54.070;10.012;2023-05-10T05:31:06;5.60;;;4.20;;
30420;SDS011;17218;54.070;10.012;2023-05-10T05:33:34;5.25;;;4.30;;
30420;SDS011;17218;54.070;10.012;2023-05-10T05:36:01;5.10;;;4.30;;
30420;SDS011;17218;54.070;10.012;2023-05-10T05:38:28;7.75;;;5.10;;
30420;SDS011;17218;54.070;10.012;2023-05-10T05:40:54;6.57;;;3.92;;
30420;SDS011;17218;54.070;10.012;2023-05-10T05:43:21;4.45;;;4.03;;
30420;SDS011;17218;54.070;10.012;2023-05-10T05:45:48;4.85;;;4.10;;
30420;SDS011;17218;54.070;10.012;2023-05-10T05:48:15;4.68;;;3.92;;
30420;SDS011;17218;54.070;10.012;2023-05-10T05:50:42;5.75;;;4.30;;
30420;SDS011;17218;54.070;10.012;2023-05-10T05:53:08;5.32;;;4.05;;
30420;SDS011;17218;54.070;10.012;2023-05-10T05:55:35;4.75;;;3.85;;
30420;SDS011;17218;54.070;10.012;2023-05-10T05:58:01;7.35;;;3.88;;
30420;SDS011;17218;54.070;10.012;2023-05-10T06:00:28;7.38;;;4.30;;
30420;SDS011;17218;54.070;10.012;2023-05-10T06:02:56;6.28;;;4.07;;
30420;SDS011;17218;54.070;10.012;2023-05-10T06:05:22;5.03;;;4.03;;
30420;SDS011;17218;54.070;10.012;2023-05-10T06:07:49;4.97;;;3.85;;
30420;SDS011;17218;54.070;10.012;2023-05-10T06:10:15;5.45;;;4.00;;
30420;SDS011;17218;54.070;10.012;2023-05-10T06:12:42;4.78;;;3.90;;
30420;SDS011;17218;54.070;10.012;2023-05-10T06:15:09;4.25;;;3.50;;
30420;SDS011;17218;54.070;10.012;2023-05-10T06:17:36;5.00;;;4.10;;
30420;SDS011;17218;54.070;10.012;2023-05-10T06:20:05;7.53;;;4.15;;
30420;SDS011;17218;54.070;10.012;2023-05-10T06:22:33;6.90;;;3.90;;
30420;SDS011;17218;54.070;10.012;2023-05-10T06:24:59;4.55;;;3.88;;
30420;SDS011;17218;54.070;10.012;2023-05-10T06:27:26;6.15;;;4.30;;
30420;SDS011;17218;54.070;10.012;2023-05-10T06:29:53;4.95;;;3.50;;
30420;SDS011;17218;54.070;10.012;2023-05-10T06:32:20;5.18;;;4.28;;
30420;SDS011;17218;54.070;10.012;2023-05-10T06:34:47;4.75;;;4.15;;
30420;SDS011;17218;54.070;10.012;2023-05-10T06:37:15;4.10;;;3.70;;
30420;SDS011;17218;54.070;10.012;2023-05-10T06:39:41;5.20;;;4.05;;
30420;SDS011;17218;54.070;10.012;2023-05-10T06:42:07;7.07;;;4.07;;
30420;SDS011;17218;54.070;10.012;2023-05-10T06:44:34;4.00;;;3.60;;
30420;SDS011;17218;54.070;10.012;2023-05-10T06:47:00;5.00;;;4.13;;
30420;SDS011;17218;54.070;10.012;2023-05-10T06:49:27;5.13;;;4.45;;
30420;SDS011;17218;54.070;10.012;2023-05-10T06:51:55;6.53;;;3.53;;
30420;SDS011;17218;54.070;10.012;2023-05-10T06:54:22;4.28;;;3.83;;
30420;SDS011;17218;54.070;10.012;2023-05-10T06:56:49;4.55;;;4.10;;
30420;SDS011;17218;54.070;10.012;2023-05-10T06:59:15;4.85;;;3.35;;
30420;SDS011;17218;54.070;10.012;2023-05-10T07:01:44;5.50;;;4.07;;
30420;SDS011;17218;54.070;10.012;2023-05-10T07:04:10;3.97;;;3.58;;
30420;SDS011;17218;54.070;10.012;2023-05-10T07:06:37;6.38;;;3.88;;
30420;SDS011;17218;54.070;10.012;2023-05-10T07:09:04;5.57;;;3.83;;
30420;SDS011;17218;54.070;10.012;2023-05-10T07:11:32;4.43;;;4.03;;
30420;SDS011;17218;54.070;10.012;2023-05-10T07:13:58;4.90;;;4.25;;
30420;SDS011;17218;54.070;10.012;2023-05-10T07:16:25;5.03;;;3.97;;
30420;SDS011;17218;54.070;10.012;2023-05-10T07:18:51;5.10;;;4.70;;
30420;SDS011;17218;54.070;10.012;2023-05-10T07:21:18;4.70;;;3.90;;
30420;SDS011;17218;54.070;10.012;2023-05-10T07:23:45;4.03;;;3.72;;
30420;SDS011;17218;54.070;10.012;2023-05-10T07:26:11;4.70;;;4.20;;
30420;SDS011;17218;54.070;10.012;2023-05-10T07:28:39;5.07;;;4.22;;
30420;SDS011;17218;54.070;10.012;2023-05-10T07:31:05;4.32;;;3.92;;
30420;SDS011;17218;54.070;10.012;2023-05-10T07:33:32;6.38;;;4.43;;
30420;SDS011;17218;54.070;10.012;2023-05-10T07:35:58;4.45;;;4.05;;
30420;SDS011;17218;54.070;10.012;2023-05-10T07:38:25;4.40;;;4.00;;
30420;SDS011;17218;54.070;10.012;2023-05-10T07:40:51;5.40;;;4.00;;
30420;SDS011;17218;54.070;10.012;2023-05-10T07:43:18;4.75;;;3.92;;
30420;SDS011;17218;54.070;10.012;2023-05-10T07:45:46;7.60;;;4.10;;
30420;SDS011;17218;54.070;10.012;2023-05-10T07:48:12;6.22;;;3.80;;
30420;SDS011;17218;54.070;10.012;2023-05-10T07:50:39;4.07;;;3.72;;
30420;SDS011;17218;54.070;10.012;2023-05-10T07:53:05;6.22;;;4.30;;
30420;SDS011;17218;54.070;10.012;2023-05-10T07:55:32;6.75;;;3.83;;
30420;SDS011;17218;54.070;10.012;2023-05-10T07:57:59;4.40;;;3.45;;
30420;SDS011;17218;54.070;10.012;2023-05-10T08:00:26;6.18;;;3.70;;
30420;SDS011;17218;54.070;10.012;2023-05-10T08:02:54;6.05;;;3.75;;
30420;SDS011;17218;54.070;10.012;2023-05-10T08:05:20;5.90;;;4.32;;
30420;SDS011;17218;54.070;10.012;2023-05-10T08:07:47;4.38;;;3.92;;
30420;SDS011;17218;54.070;10.012;2023-05-10T08:10:13;7.63;;;4.60;;
30420;SDS011;17218;54.070;10.012;2023-05-10T08:12:40;5.40;;;3.88;;
30420;SDS011;17218;54.070;10.012;2023-05-10T08:15:07;4.28;;;3.65;;
30420;SDS011;17218;54.070;10.012;2023-05-10T08:17:34;5.72;;;4.45;;
30420;SDS011;17218;54.070;10.012;2023-05-10T08:20:02;4.35;;;3.70;;
30420;SDS011;17218;54.070;10.012;2023-05-10T08:22:30;6.90;;;4.10;;
30420;SDS011;17218;54.070;10.012;2023-05-10T08:24:56;4.97;;;3.97;;
30420;SDS011;17218;54.070;10.012;2023-05-10T08:27:22;4.50;;;4.10;;
30420;SDS011;17218;54.070;10.012;2023-05-10T08:29:49;4.57;;;3.70;;
30420;SDS011;17218;54.070;10.012;2023-05-10T08:32:15;6.88;;;3.45;;
30420;SDS011;17218;54.070;10.012;2023-05-10T08:34:42;4.75;;;3.90;;
30420;SDS011;17218;54.070;10.012;2023-05-10T08:37:10;4.85;;;3.65;;
30420;SDS011;17218;54.070;10.012;2023-05-10T08:39:38;4.95;;;3.72;;
30420;SDS011;17218;54.070;10.012;2023-05-10T08:42:04;4.82;;;4.18;;
30420;SDS011;17218;54.070;10.012;2023-05-10T08:44:34;5.28;;;3.72;;
30420;SDS011;17218;54.070;10.012;2023-05-10T08:47:02;4.82;;;3.75;;
30420;SDS011;17218;54.070;10.012;2023-05-10T08:49:31;5.95;;;3.78;;
30420;SDS011;17218;54.070;10.012;2023-05-10T08:51:59;6.22;;;3.80;;
30420;SDS011;17218;54.070;10.012;2023-05-10T08:54:31;3.60;;;3.10;;
30420;SDS011;17218;54.070;10.012;2023-05-10T08:56:58;3.70;;;3.40;;
30420;SDS011;17218;54.070;10.012;2023-05-10T08:59:24;4.30;;;3.90;;
30420;SDS011;17218;54.070;10.012;2023-05-10T09:01:51;4.22;;;3.42;;
30420;SDS011;17218;54.070;10.012;2023-05-10T09:04:18;6.47;;;3.92;;
30420;SDS011;17218;54.070;10.012;2023-05-10T09:06:46;3.50;;;3.20;;
30420;SDS011;17218;54.070;10.012;2023-05-10T09:09:12;4.20;;;3.65;;
30420;SDS011;17218;54.070;10.012;2023-05-10T09:11:41;4.50;;;4.00;;
30420;SDS011;17218;54.070;10.012;2023-05-10T09:14:07;3.92;;;3.60;;
30420;SDS011;17218;54.070;10.012;2023-05-10T09:16:34;6.18;;;3.63;;
30420;SDS011;17218;54.070;10.012;2023-05-10T09:19:00;3.35;;;3.05;;
30420;SDS011;17218;54.070;10.012;2023-05-10T09:21:27;4.57;;;4.18;;
30420;SDS011;17218;54.070;10.012;2023-05-10T09:23:54;4.85;;;3.75;;
30420;SDS011;17218;54.070;10.012;2023-05-10T09:26:25;4.03;;;3.60;;
30420;SDS011;17218;54.070;10.012;2023-05-10T09:28:54;4.07;;;3.67;;
30420;SDS011;17218;54.070;10.012;2023-05-10T09:31:21;5.88;;;4.32;;
30420;SDS011;17218;54.070;10.012;2023-05-10T09:33:48;5.38;;;3.72;;
30420;SDS011;17218;54.070;10.012;2023-05-10T09:36:15;4.50;;;4.10;;
30420;SDS011;17218;54.070;10.012;2023-05-10T09:38:45;4.93;;;3.50;;
30420;SDS011;17218;54.070;10.012;2023-05-10T09:41:16;5.10;;;3.75;;
30420;SDS011;17218;54.070;10.012;2023-05-10T09:43:43;5.90;;;3.80;;
30420;SDS011;17218;54.070;10.012;2023-05-10T09:46:11;5.85;;;3.50;;
30420;SDS011;17218;54.070;10.012;2023-05-10T09:48:39;5.00;;;3.67;;
30420;SDS011;17218;54.070;10.012;2023-05-10T09:51:08;3.85;;;3.50;;
30420;SDS011;17218;54.070;10.012;2023-05-10T09:53:35;3.45;;;3.15;;
30420;SDS011;17218;54.070;10.012;2023-05-10T09:56:02;7.03;;;3.40;;
30420;SDS011;17218;54.070;10.012;2023-05-10T09:58:28;4.25;;;3.85;;
30420;SDS011;17218;54.070;10.012;2023-05-10T10:00:55;3.83;;;3.35;;
30420;SDS011;17218;54.070;10.012;2023-05-10T10:03:23;5.93;;;3.90;;
30420;SDS011;17218;54.070;10.012;2023-05-10T10:05:50;4.05;;;3.67;;
30420;SDS011;17218;54.070;10.012;2023-05-10T10:08:18;5.65;;;3.47;;
30420;SDS011;17218;54.070;10.012;2023-05-10T10:10:45;11.65;;;3.97;;
30420;SDS011;17218;54.070;10.012;2023-05-10T10:13:12;4.90;;;3.90;;
30420;SDS011;17218;54.070;10.012;2023-05-10T10:15:39;4.30;;;3.30;;
30420;SDS011;17218;54.070;10.012;2023-05-10T10:18:06;4.13;;;3.75;;
30420;SDS011;17218;54.070;10.012;2023-05-10T10:20:39;6.60;;;3.90;;
30420;SDS011;17218;54.070;10.012;2023-05-10T10:23:07;3.85;;;3.55;;
30420;SDS011;17218;54.070;10.012;2023-05-10T10:25:34;5.20;;;3.88;;
30420;SDS011;17218;54.070;10.012;2023-05-10T10:28:08;8.98;;;3.90;;
30420;SDS011;17218;54.070;10.012;2023-05-10T10:30:43;4.97;;;4.00;;
30420;SDS011;17218;54.070;10.012;2023-05-10T10:33:13;5.40;;;3.83;;
30420;SDS011;17218;54.070;10.012;2023-05-10T10:35:58;5.40;;;3.80;;
30420;SDS011;17218;54.070;10.012;2023-05-10T10:38:26;6.57;;;4.20;;
30420;SDS011;17218;54.070;10.012;2023-05-10T10:41:03;4.68;;;3.83;;
30420;SDS011;17218;54.070;10.012;2023-05-10T10:43:35;6.03;;;4.68;;
30420;SDS011;17218;54.070;10.012;2023-05-10T10:46:14;5.20;;;4.10;;
30420;SDS011;17218;54.070;10.012;2023-05-10T10:48:47;5.03;;;4.57;;
30420;SDS011;17218;54.070;10.012;2023-05-10T10:51:15;6.45;;;4.10;;
30420;SDS011;17218;54.070;10.012;2023-05-10T10:53:42;5.65;;;3.72;;
30420;SDS011;17218;54.070;10.012;2023-05-10T10:56:10;6.50;;;3.80;;
30420;SDS011;17218;54.070;10.012;2023-05-10T10:58:38;6.03;;;4.40;;
30420;SDS011;17218;54.070;10.012;2023-05-10T11:01:12;6.90;;;4.72;;
30420;SDS011;17218;54.070;10.012;2023-05-10T11:03:41;5.10;;;4.05;;
30420;SDS011;17218;54.070;10.012;2023-05-10T11:06:29;4.90;;;4.25;;
30420;SDS011;17218;54.070;10.012;2023-05-10T11:08:57;6.82;;;4.50;;
30420;SDS011;17218;54.070;10.012;2023-05-10T11:11:24;7.00;;;4.20;;
30420;SDS011;17218;54.070;10.012;2023-05-10T11:13:51;4.80;;;4.07;;
30420;SDS011;17218;54.070;10.012;2023-05-10T11:16:18;5.25;;;4.00;;
30420;SDS011;17218;54.070;10.012;2023-05-10T11:18:52;4.97;;;3.60;;
30420;SDS011;17218;54.070;10.012;2023-05-10T11:21:26;5.32;;;4.18;;
30420;SDS011;17218;54.070;10.012;2023-05-10T11:23:55;10.63;;;4.80;;
30420;SDS011;17218;54.070;10.012;2023-05-10T11:26:23;5.80;;;4.22;;
30420;SDS011;17218;54.070;10.012;2023-05-10T11:28:51;5.97;;;4.97;;
30420;SDS011;17218;54.070;10.012;2023-05-10T11:31:21;7.55;;;5.10;;
30420;SDS011;17218;54.070;10.012;2023-05-10T11:33:48;6.18;;;5.47;;
30420;SDS011;17218;54.070;10.012;2023-05-10T11:36:16;6.40;;;5.80;;
30420;SDS011;17218;54.070;10.012;2023-05-10T11:38:44;6.18;;;5.57;;
30420;SDS011;17218;54.070;10.012;2023-05-10T11:41:12;6.95;;;5.85;;
30420;SDS011;17218;54.070;10.012;2023-05-10T11:43:40;13.88;;;7.53;;
30420;SDS011;17218;54.070;10.012;2023-05-10T11:46:07;11.52;;;8.82;;
30420;SDS011;17218;54.070;10.012;2023-05-10T11:48:35;9.75;;;7.25;;
30420;SDS011;17218;54.070;10.012;2023-05-10T11:51:02;9.13;;;7.80;;
30420;SDS011;17218;54.070;10.012;2023-05-10T11:53:29;9.07;;;7.75;;
30420;SDS011;17218;54.070;10.012;2023-05-10T11:56:02;13.25;;;10.80;;
30420;SDS011;17218;54.070;10.012;2023-05-10T11:58:31;12.98;;;10.85;;
30420;SDS011;17218;54.070;10.012;2023-05-10T12:00:58;15.25;;;11.18;;
30420;SDS011;17218;54.070;10.012;2023-05-10T12:03:25;8.55;;;7.65;;
30420;SDS011;17218;54.070;10.012;2023-05-10T12:05:52;11.55;;;8.40;;
30420;SDS011;17218;54.070;10.012;2023-05-10T12:08:20;9.93;;;8.52;;
30420;SDS011;17218;54.070;10.012;2023-05-10T12:10:48;11.20;;;9.45;;
30420;SDS011;17218;54.070;10.012;2023-05-10T12:13:14;11.38;;;9.77;;
30420;SDS011;17218;54.070;10.012;2023-05-10T12:15:43;10.90;;;8.90;;
30420;SDS011;17218;54.070;10.012;2023-05-10T12:18:10;10.50;;;9.32;;
30420;SDS011;17218;54.070;10.012;2023-05-10T12:20:37;9.98;;;8.98;;
30420;SDS011;17218;54.070;10.012;2023-05-10T12:23:04;9.77;;;8.88;;
30420;SDS011;17218;54.070;10.012;2023-05-10T12:25:32;10.10;;;9.07;;
30420;SDS011;17218;54.070;10.012;2023-05-10T12:28:00;12.70;;;9.52;;
30420;SDS011;17218;54.070;10.012;2023-05-10T12:30:30;11.02;;;9.93;;
30420;SDS011;17218;54.070;10.012;2023-05-10T12:33:02;9.93;;;8.90;;
30420;SDS011;17218;54.070;10.012;2023-05-10T12:35:33;9.32;;;8.43;;
30420;SDS011;17218;54.070;10.012;2023-05-10T12:38:22;10.70;;;9.13;;
30420;SDS011;17218;54.070;10.012;2023-05-10T12:40:51;9.02;;;8.13;;
30420;SDS011;17218;54.070;10.012;2023-05-10T12:43:17;9.98;;;8.98;;
30420;SDS011;17218;54.070;10.012;2023-05-10T12:45:44;9.93;;;8.95;;
30420;SDS011;17218;54.070;10.012;2023-05-10T12:48:14;13.70;;;8.95;;
30420;SDS011;17218;54.070;10.012;2023-05-10T12:50:40;9.70;;;8.80;;
30420;SDS011;17218;54.070;10.012;2023-05-10T12:53:07;9.52;;;8.50;;
30420;SDS011;17218;54.070;10.012;2023-05-10T12:55:33;9.38;;;8.50;;
30420;SDS011;17218;54.070;10.012;2023-05-10T12:58:00;11.27;;;9.00;;
30420;SDS011;17218;54.070;10.012;2023-05-10T13:00:26;10.48;;;9.18;;
30420;SDS011;17218;54.070;10.012;2023-05-10T13:02:53;10.38;;;9.38;;
30420;SDS011;17218;54.070;10.012;2023-05-10T13:05:21;8.88;;;8.02;;
30420;SDS011;17218;54.070;10.012;2023-05-10T13:07:48;9.52;;;8.57;;
30420;SDS011;17218;54.070;10.012;2023-05-10T13:10:14;9.75;;;8.85;;
30420;SDS011;17218;54.070;10.012;2023-05-10T13:12:41;9.02;;;8.13;;
30420;SDS011;17218;54.070;10.012;2023-05-10T13:15:07;11.93;;;8.57;;
30420;SDS011;17218;54.070;10.012;2023-05-10T13:17:34;10.35;;;8.68;;
30420;SDS011;17218;54.070;10.012;2023-05-10T13:20:02;10.02;;;8.60;;
30420;SDS011;17218;54.070;10.012;2023-05-10T13:22:30;9.90;;;9.00;;
30420;SDS011;17218;54.070;10.012;2023-05-10T13:24:57;10.02;;;9.02;;
30420;SDS011;17218;54.070;10.012;2023-05-10T13:27:23;10.35;;;9.20;;
30420;SDS011;17218;54.070;10.012;2023-05-10T13:29:50;9.95;;;9.02;;
30420;SDS011;17218;54.070;10.012;2023-05-10T13:32:16;9.80;;;8.68;;
30420;SDS011;17218;54.070;10.012;2023-05-10T13:34:42;9.90;;;9.00;;
30420;SDS011;17218;54.070;10.012;2023-05-10T13:37:09;10.88;;;9.85;;
30420;SDS011;17218;54.070;10.012;2023-05-10T13:39:37;10.75;;;9.45;;
30420;SDS011;17218;54.070;10.012;2023-05-10T13:42:03;11.07;;;9.48;;
30420;SDS011;17218;54.070;10.012;2023-05-10T13:44:30;10.85;;;9.75;;
30420;SDS011;17218;54.070;10.012;2023-05-10T13:46:58;11.02;;;9.93;;
30420;SDS011;17218;54.070;10.012;2023-05-10T13:49:25;10.48;;;9.38;;
30420;SDS011;17218;54.070;10.012;2023-05-10T13:51:51;10.68;;;9.10;;
30420;SDS011;17218;54.070;10.012;2023-05-10T13:54:18;10.25;;;9.25;;
30420;SDS011;17218;54.070;10.012;2023-05-10T13:56:48;9.40;;;8.50;;
30420;SDS011;17218;54.070;10.012;2023-05-10T13:59:14;9.27;;;8.30;;
30420;SDS011;17218;54.070;10.012;2023-05-10T14:01:41;7.50;;;6.80;;
30420;SDS011;17218;54.070;10.012;2023-05-10T14:04:08;8.77;;;7.90;;
30420;SDS011;17218;54.070;10.012;2023-05-10T14:06:35;8.00;;;7.07;;
30420;SDS011;17218;54.070;10.012;2023-05-10T14:09:02;6.70;;;6.10;;
30420;SDS011;17218;54.070;10.012;2023-05-10T14:11:28;6.35;;;5.75;;
30420;SDS011;17218;54.070;10.012;2023-05-10T14:13:56;5.75;;;5.25;;
30420;SDS011;17218;54.070;10.012;2023-05-10T14:16:23;5.80;;;5.28;;
30420;SDS011;17218;54.070;10.012;2023-05-10T14:18:49;6.60;;;5.90;;
30420;SDS011;17218;54.070;10.012;2023-05-10T14:21:16;7.00;;;6.28;;
30420;SDS011;17218;54.070;10.012;2023-05-10T14:23:42;7.90;;;6.22;;
30420;SDS011;17218;54.070;10.012;2023-05-10T14:26:09;7.75;;;6.75;;
30420;SDS011;17218;54.070;10.012;2023-05-10T14:28:35;7.60;;;6.40;;
30420;SDS011;17218;54.070;10.012;2023-05-10T14:31:03;6.82;;;6.15;;
30420;SDS011;17218;54.070;10.012;2023-05-10T14:33:30;6.47;;;5.90;;
30420;SDS011;17218;54.070;10.012;2023-05-10T14:35:56;6.53;;;5.05;;
30420;SDS011;17218;54.070;10.012;2023-05-10T14:38:24;6.28;;;4.63;;
30420;SDS011;17218;54.070;10.012;2023-05-10T14:40:51;5.80;;;4.43;;
30420;SDS011;17218;54.070;10.012;2023-05-10T14:43:18;5.10;;;3.63;;